Time;durP1;ratioP1;P1;durP2;ratioP2;P2;SDS_P1;SDS_P2;PMS_P1;PMS_P2;Temp;Humidity;BMP_temperature;BMP_pressure;BME280_temperature;BME280_humidity;BME280_pressure;Samples;Min_cycle;Max_cycle;Signal;HPM_P1;HPM_P2
2023/02/22 00:01:34;;;;;;;11.52;4.88;;;23.20;43.00;;;;;;6279164;27;80393;-55
2023/02/22 00:04:34;;;;;;;10.40;4.10;;;23.20;43.00;;;;;;6265749;27;80535;-54
2023/02/22 00:07:35;;;;;;;12.32;5.38;;;23.20;43.00;;;;;;6277893;27;80230;-54
2023/02/22 00:10:37;;;;;;;12.82;6.03;;;23.10;43.00;;;;;;6274950;27;81789;-54
2023/02/22 00:13:37;;;;;;;7.85;4.18;;;23.20;43.00;;;;;;6268968;27;81887;-55
2023/02/22 00:16:38;;;;;;;10.57;4.85;;;23.20;42.90;;;;;;6274404;27;80905;-54
2023/02/22 00:19:38;;;;;;;10.00;5.13;;;23.20;42.90;;;;;;6277959;27;80456;-54
2023/02/22 00:22:39;;;;;;;12.05;4.68;;;23.10;42.90;;;;;;6278191;27;82239;-54
2023/02/22 00:25:39;;;;;;;11.27;5.22;;;23.10;42.80;;;;;;6278123;27;82442;-54
2023/02/22 00:28:41;;;;;;;12.00;5.22;;;23.10;42.70;;;;;;6249186;27;82249;-58
2023/02/22 00:31:41;;;;;;;12.95;5.53;;;23.10;42.70;;;;;;6252716;27;84990;-54
2023/02/22 00:34:45;;;;;;;10.32;5.03;;;23.10;42.70;;;;;;6278534;27;80850;-54
2023/02/22 00:37:45;;;;;;;12.80;5.60;;;23.20;42.80;;;;;;6278013;27;80589;-54
2023/02/22 00:40:46;;;;;;;11.45;5.32;;;23.10;42.80;;;;;;6247211;27;80357;-53
2023/02/22 00:43:47;;;;;;;11.88;5.13;;;23.10;42.90;;;;;;6278118;27;80752;-56
2023/02/22 00:46:48;;;;;;;11.85;5.25;;;23.10;42.80;;;;;;6264212;27;80592;-55
2023/02/22 00:49:49;;;;;;;12.07;5.32;;;23.10;42.70;;;;;;6277726;27;80554;-53
2023/02/22 00:52:49;;;;;;;12.77;5.75;;;23.10;42.70;;;;;;6278188;27;81175;-56
2023/02/22 00:55:50;;;;;;;14.95;5.57;;;23.10;42.80;;;;;;6235404;28;83736;-57
2023/02/22 00:58:50;;;;;;;13.43;5.68;;;23.10;42.70;;;;;;6267460;27;80889;-57
2023/02/22 01:01:51;;;;;;;12.95;5.85;;;23.10;42.80;;;;;;6243595;27;81472;-57
2023/02/22 01:04:52;;;;;;;12.52;5.72;;;23.10;42.90;;;;;;6246081;27;81503;-56
2023/02/22 01:07:52;;;;;;;11.85;4.72;;;23.10;42.70;;;;;;6264481;27;81124;-57
2023/02/22 01:10:53;;;;;;;10.60;4.60;;;23.10;42.80;;;;;;6262988;27;80612;-57
2023/02/22 01:13:54;;;;;;;13.32;5.72;;;23.10;42.80;;;;;;6270009;27;83531;-56
2023/02/22 01:16:55;;;;;;;13.85;5.18;;;23.00;42.80;;;;;;6235500;27;80594;-55
2023/02/22 01:19:55;;;;;;;11.25;5.22;;;23.10;42.80;;;;;;6236440;27;81723;-54
2023/02/22 01:22:56;;;;;;;12.35;5.10;;;23.00;42.70;;;;;;6233801;28;82812;-56
2023/02/22 01:25:56;;;;;;;17.58;6.40;;;23.00;42.60;;;;;;6238244;27;80498;-55
2023/02/22 01:28:57;;;;;;;12.27;5.57;;;23.00;42.70;;;;;;6251759;27;80411;-55
2023/02/22 01:32:00;;;;;;;12.73;5.50;;;23.10;42.80;;;;;;6231776;28;82967;-55
2023/02/22 01:35:03;;;;;;;10.35;5.38;;;23.00;42.70;;;;;;6251447;27;81688;-53
2023/02/22 01:38:04;;;;;;;13.43;5.80;;;23.00;42.80;;;;;;6232741;28;80712;-56
2023/02/22 01:41:05;;;;;;;12.80;5.68;;;23.00;42.70;;;;;;6209261;28;82970;-64
2023/02/22 01:44:05;;;;;;;14.82;5.85;;;23.00;42.70;;;;;;6248751;28;80439;-66
2023/02/22 01:47:07;;;;;;;15.00;5.78;;;23.00;42.70;;;;;;6250076;28;82568;-64
2023/02/22 01:50:09;;;;;;;16.08;5.95;;;23.00;42.70;;;;;;6251460;27;80300;-65
2023/02/22 01:53:10;;;;;;;13.70;5.53;;;23.00;42.60;;;;;;6251355;27;80747;-64
2023/02/22 01:56:12;;;;;;;12.25;5.72;;;23.00;42.80;;;;;;6219024;28;83333;-64
2023/02/22 01:59:14;;;;;;;14.45;6.05;;;23.00;42.80;;;;;;6250613;27;80630;-67
2023/02/22 02:02:14;;;;;;;15.68;7.07;;;23.00;42.80;;;;;;6221221;28;80530;-66
2023/02/22 02:05:15;;;;;;;12.73;5.82;;;23.00;42.80;;;;;;6239200;28;80484;-66
2023/02/22 02:08:15;;;;;;;13.23;6.25;;;23.00;43.50;;;;;;6230605;28;80299;-66
2023/02/22 02:11:16;;;;;;;11.80;5.55;;;23.00;42.70;;;;;;6226320;27;81421;-67
2023/02/22 02:14:16;;;;;;;11.88;6.25;;;23.00;42.90;;;;;;6221603;27;81411;-67
2023/02/22 02:17:17;;;;;;;13.00;5.50;;;23.00;42.70;;;;;;6242297;27;80175;-60
2023/02/22 02:20:18;;;;;;;13.38;6.32;;;23.00;42.70;;;;;;6252761;27;83650;-60
2023/02/22 02:23:18;;;;;;;16.33;6.90;;;23.00;42.70;;;;;;6244017;28;81628;-61
2023/02/22 02:26:19;;;;;;;15.50;5.85;;;23.00;42.60;;;;;;6259403;27;81825;-60
2023/02/22 02:29:19;;;;;;;15.50;6.63;;;23.00;42.70;;;;;;6275387;27;80421;-62
2023/02/22 02:32:20;;;;;;;12.45;6.18;;;23.00;42.60;;;;;;6259816;27;82316;-61
2023/02/22 02:35:20;;;;;;;11.45;5.97;;;23.00;42.60;;;;;;6275582;27;80548;-61
2023/02/22 02:38:21;;;;;;;12.57;6.53;;;23.00;42.60;;;;;;6275460;27;81258;-62
2023/02/22 02:41:21;;;;;;;16.20;7.03;;;22.90;42.60;;;;;;6264653;27;81328;-64
2023/02/22 02:44:22;;;;;;;15.02;6.82;;;22.90;42.50;;;;;;6273669;27;81098;-63
2023/02/22 02:47:22;;;;;;;15.85;6.47;;;23.00;42.60;;;;;;6275976;27;81013;-62
2023/02/22 02:50:23;;;;;;;12.55;5.97;;;22.90;42.50;;;;;;6258915;27;82602;-61
2023/02/22 02:53:23;;;;;;;13.07;6.93;;;22.90;42.60;;;;;;6280026;27;80399;-61
2023/02/22 02:56:24;;;;;;;14.73;7.03;;;22.90;42.60;;;;;;6262087;27;81787;-65
2023/02/22 02:59:25;;;;;;;14.80;6.32;;;22.90;42.40;;;;;;6279775;27;81691;-66
2023/02/22 03:02:25;;;;;;;14.10;7.10;;;23.00;42.80;;;;;;6280692;27;80687;-66
2023/02/22 03:05:26;;;;;;;16.92;6.97;;;23.00;42.70;;;;;;6278208;27;80785;-66
2023/02/22 03:08:26;;;;;;;14.32;7.05;;;22.90;42.70;;;;;;6261099;27;83383;-66
2023/02/22 03:11:27;;;;;;;17.00;7.53;;;22.90;42.60;;;;;;6277372;27;80560;-65
2023/02/22 03:14:29;;;;;;;16.45;6.97;;;23.00;42.70;;;;;;6254514;27;83058;-56
2023/02/22 03:17:29;;;;;;;16.60;7.65;;;22.90;42.50;;;;;;6276280;27;82967;-54
2023/02/22 03:20:30;;;;;;;19.70;7.55;;;22.90;42.50;;;;;;6235248;28;81721;-58
2023/02/22 03:23:32;;;;;;;13.50;6.63;;;22.90;42.60;;;;;;6224133;28;82306;-56
2023/02/22 03:26:33;;;;;;;13.52;7.07;;;23.00;42.50;;;;;;6211295;28;81565;-58
2023/02/22 03:29:35;;;;;;;15.82;6.95;;;22.90;42.40;;;;;;6224117;28;81899;-56
2023/02/22 03:32:36;;;;;;;14.20;6.82;;;22.90;42.30;;;;;;6218163;28;83022;-57
2023/02/22 03:35:38;;;;;;;15.45;7.85;;;23.00;42.50;;;;;;6232332;28;83282;-54
2023/02/22 03:38:39;;;;;;;16.33;7.55;;;23.00;42.40;;;;;;6251197;27;80560;-51
2023/02/22 03:41:39;;;;;;;15.73;7.47;;;23.00;42.40;;;;;;6225131;27;81818;-55
2023/02/22 03:44:40;;;;;;;15.70;7.30;;;23.00;42.50;;;;;;6254817;27;81038;-55
2023/02/22 03:47:41;;;;;;;15.25;7.60;;;23.00;42.50;;;;;;6253500;27;80900;-56
2023/02/22 03:50:42;;;;;;;16.90;7.78;;;23.00;42.50;;;;;;6234424;28;83126;-57
2023/02/22 03:53:49;;;;;;;17.25;7.28;;;23.00;42.40;;;;;;6234421;28;82858;-56
2023/02/22 03:56:51;;;;;;;14.57;6.95;;;23.00;42.40;;;;;;6234576;28;80556;-54
2023/02/22 03:59:54;;;;;;;15.02;7.03;;;23.00;42.50;;;;;;6234527;27;83656;-55
2023/02/22 04:02:55;;;;;;;16.10;7.10;;;23.00;42.40;;;;;;6221902;28;83187;-56
2023/02/22 04:05:56;;;;;;;17.35;7.82;;;23.00;42.50;;;;;;6229774;28;81928;-55
2023/02/22 04:08:57;;;;;;;17.92;7.38;;;23.00;42.40;;;;;;6221157;27;82384;-67
2023/02/22 04:11:58;;;;;;;17.35;7.68;;;23.00;42.50;;;;;;6226325;27;83134;-65
2023/02/22 04:14:59;;;;;;;15.43;7.40;;;23.00;42.50;;;;;;6222180;28;83721;-64
2023/02/22 04:18:00;;;;;;;16.80;7.50;;;23.00;42.50;;;;;;6233383;27;83379;-64
2023/02/22 04:39:30;;;;;;;17.13;7.50;;;23.00;42.00;;;;;;6276273;27;80554;-66
2023/02/22 04:42:30;;;;;;;17.42;8.02;;;23.10;41.90;;;;;;6258193;27;83085;-66
2023/02/22 04:45:31;;;;;;;22.13;8.20;;;23.10;41.80;;;;;;6273919;27;80273;-58
2023/02/22 04:48:31;;;;;;;18.98;8.57;;;23.10;41.90;;;;;;6251520;27;83216;-53
2023/02/22 04:51:32;;;;;;;20.27;8.75;;;23.20;41.60;;;;;;6253711;27;82111;-65
2023/02/22 04:54:35;;;;;;;19.33;7.55;;;23.20;41.50;;;;;;6250885;27;81926;-56
2023/02/22 04:57:36;;;;;;;20.92;8.48;;;23.20;41.20;;;;;;6258308;27;83461;-53
2023/02/22 05:00:36;;;;;;;17.73;8.27;;;23.20;41.20;;;;;;6276313;27;80177;-53
2023/02/22 05:03:37;;;;;;;18.00;8.23;;;23.20;41.40;;;;;;6248057;27;81733;-62
2023/02/22 05:06:38;;;;;;;16.73;8.68;;;23.20;41.60;;;;;;6253913;27;80439;-64
2023/02/22 05:09:38;;;;;;;20.40;8.52;;;23.20;41.70;;;;;;6271987;27;80683;-62
2023/02/22 05:12:39;;;;;;;20.13;8.68;;;23.30;42.00;;;;;;6267780;27;80851;-63
2023/02/22 05:15:39;;;;;;;22.75;9.15;;;23.30;41.70;;;;;;6269745;27;80469;-69
2023/02/22 05:18:40;;;;;;;21.85;8.77;;;23.30;41.80;;;;;;6266895;27;81005;-67
2023/02/22 05:21:41;;;;;;;21.77;9.68;;;23.30;41.90;;;;;;6261752;27;85002;-61
2023/02/22 05:24:42;;;;;;;20.58;8.43;;;23.30;42.00;;;;;;6270678;27;80651;-65
2023/02/22 05:27:43;;;;;;;24.70;8.65;;;23.30;42.30;;;;;;6271394;27;80927;-63
2023/02/22 05:30:44;;;;;;;22.67;9.23;;;23.40;42.70;;;;;;6260916;27;86088;-67
2023/02/22 05:33:44;;;;;;;24.00;9.70;;;23.40;42.60;;;;;;6255895;27;80468;-64
2023/02/22 05:36:45;;;;;;;17.52;8.38;;;23.40;42.50;;;;;;6269959;27;82052;-63
2023/02/22 05:39:45;;;;;;;23.65;8.25;;;23.40;42.20;;;;;;6265904;27;80874;-63
2023/02/22 05:42:46;;;;;;;22.17;9.35;;;23.50;41.90;;;;;;6269967;27;80911;-64
2023/02/22 05:45:46;;;;;;;21.48;8.82;;;23.40;41.50;;;;;;6264297;27;81705;-62
2023/02/22 05:48:47;;;;;;;24.23;9.25;;;23.40;41.90;;;;;;6254298;27;80908;-62
2023/02/22 05:51:47;;;;;;;22.95;8.60;;;23.40;41.80;;;;;;6271796;27;80653;-62
2023/02/22 05:54:48;;;;;;;20.63;8.50;;;23.40;41.90;;;;;;6248666;27;80780;-62
2023/02/22 05:57:49;;;;;;;22.67;9.73;;;23.40;41.70;;;;;;6274695;27;80967;-62
2023/02/22 06:00:49;;;;;;;28.75;10.27;;;23.30;41.50;;;;;;6270772;27;80974;-62
2023/02/22 06:03:50;;;;;;;22.58;9.27;;;23.30;41.50;;;;;;6254614;27;83254;-62
2023/02/22 06:06:50;;;;;;;23.05;9.55;;;23.30;41.20;;;;;;6264618;27;82718;-62
2023/02/22 06:09:52;;;;;;;20.13;8.98;;;23.30;41.10;;;;;;6252271;27;81839;-60
2023/02/22 06:12:52;;;;;;;24.70;9.27;;;23.20;40.90;;;;;;6190901;27;82071;-61
2023/02/22 06:15:53;;;;;;;20.15;9.40;;;23.20;40.90;;;;;;6261466;27;80624;-61
2023/02/22 06:18:53;;;;;;;21.17;9.20;;;23.20;40.90;;;;;;6260011;27;80481;-61
2023/02/22 06:21:54;;;;;;;23.33;9.38;;;23.20;40.90;;;;;;6250464;27;81665;-61
2023/02/22 06:24:54;;;;;;;24.02;10.02;;;23.10;40.90;;;;;;6258383;27;80710;-64
2023/02/22 06:27:55;;;;;;;21.65;10.02;;;23.10;40.90;;;;;;6255185;27;86438;-61
2023/02/22 06:30:55;;;;;;;23.33;10.30;;;23.10;40.90;;;;;;6259172;27;82951;-61
2023/02/22 06:33:56;;;;;;;22.10;9.30;;;23.10;40.90;;;;;;6241425;27;84169;-61
2023/02/22 06:36:57;;;;;;;25.55;9.95;;;23.10;41.40;;;;;;6233643;27;86060;-60
2023/02/22 06:39:57;;;;;;;23.60;9.55;;;23.10;41.50;;;;;;6268205;27;82242;-61
2023/02/22 06:42:58;;;;;;;20.02;9.40;;;23.10;41.20;;;;;;6261218;27;84050;-62
2023/02/22 06:45:59;;;;;;;24.42;10.38;;;23.10;41.10;;;;;;6271489;27;80382;-61
2023/02/22 06:48:59;;;;;;;26.23;10.70;;;23.10;41.10;;;;;;6224016;27;84004;-62
2023/02/22 06:52:00;;;;;;;22.00;10.02;;;23.10;41.20;;;;;;6248766;27;88578;-65
2023/02/22 06:55:00;;;;;;;21.30;9.85;;;23.10;41.70;;;;;;6265623;27;83209;-63
2023/02/22 06:58:01;;;;;;;23.15;9.68;;;23.00;41.30;;;;;;6269966;27;83388;-61
2023/02/22 07:01:02;;;;;;;20.55;9.80;;;23.00;41.40;;;;;;6266690;27;80924;-62
2023/02/22 07:04:03;;;;;;;23.95;10.32;;;23.00;41.40;;;;;;6267143;27;82036;-62
2023/02/22 07:07:03;;;;;;;21.27;9.63;;;23.00;41.50;;;;;;6266215;27;85229;-62
2023/02/22 07:10:04;;;;;;;21.27;9.75;;;23.00;41.20;;;;;;6264669;27;83022;-62
2023/02/22 07:13:04;;;;;;;20.25;10.10;;;23.00;41.40;;;;;;6261880;27;80693;-62
2023/02/22 07:16:05;;;;;;;26.50;11.00;;;23.00;41.20;;;;;;6265213;27;82971;-62
2023/02/22 07:19:05;;;;;;;21.58;9.82;;;23.00;41.10;;;;;;6267184;27;83111;-62
2023/02/22 07:22:06;;;;;;;22.23;10.30;;;23.00;41.20;;;;;;6269441;27;81814;-63
2023/02/22 07:25:08;;;;;;;26.23;10.85;;;23.00;41.20;;;;;;6260555;27;83760;-62
2023/02/22 07:28:12;;;;;;;24.23;9.95;;;23.00;41.20;;;;;;6261537;27;85011;-61
2023/02/22 07:31:12;;;;;;;20.83;10.13;;;23.00;41.20;;;;;;6244543;27;85921;-60
2023/02/22 07:34:13;;;;;;;19.50;9.55;;;22.90;41.20;;;;;;6267321;27;83254;-61
2023/02/22 07:37:13;;;;;;;25.52;10.25;;;22.90;41.20;;;;;;6272512;27;84150;-61
2023/02/22 07:40:14;;;;;;;24.90;9.85;;;22.90;41.20;;;;;;6269873;27;83172;-60
2023/02/22 07:43:15;;;;;;;24.88;10.30;;;22.90;41.20;;;;;;6240526;27;83936;-62
2023/02/22 07:46:15;;;;;;;20.80;8.32;;;22.90;41.20;;;;;;6257094;27;83523;-62
2023/02/22 07:49:16;;;;;;;23.00;9.88;;;23.00;41.20;;;;;;6251108;27;86012;-63
2023/02/22 07:52:16;;;;;;;23.15;8.52;;;22.90;41.10;;;;;;6258355;27;82465;-62
2023/02/22 07:55:17;;;;;;;18.60;9.00;;;22.90;41.10;;;;;;6271479;27;81567;-63
2023/02/22 07:58:17;;;;;;;19.75;8.30;;;23.00;41.00;;;;;;6258390;27;80648;-63
2023/02/22 08:01:18;;;;;;;18.52;9.55;;;23.00;41.10;;;;;;6265888;27;81458;-61
2023/02/22 08:04:18;;;;;;;18.67;8.75;;;23.00;41.50;;;;;;6264671;27;81247;-62
2023/02/22 08:07:19;;;;;;;19.80;9.18;;;23.00;41.80;;;;;;6268384;27;80414;-61
2023/02/22 08:10:19;;;;;;;16.92;8.48;;;23.00;42.20;;;;;;6275210;27;85327;-62
2023/02/22 08:13:21;;;;;;;16.80;8.57;;;23.00;42.40;;;;;;6246318;27;84041;-61
2023/02/22 08:16:21;;;;;;;19.30;9.63;;;23.00;42.40;;;;;;6262539;27;81823;-61
2023/02/22 08:19:22;;;;;;;19.73;9.65;;;23.00;42.10;;;;;;6262078;27;80772;-59
2023/02/22 08:22:23;;;;;;;22.48;9.52;;;23.00;42.20;;;;;;6272885;27;80633;-60
2023/02/22 08:25:24;;;;;;;16.55;8.48;;;23.00;42.10;;;;;;6239129;27;81001;-61
2023/02/22 08:28:24;;;;;;;19.98;9.18;;;23.00;41.90;;;;;;6273656;27;80338;-62
2023/02/22 08:31:25;;;;;;;18.77;7.97;;;23.00;41.90;;;;;;6266633;27;81478;-61
2023/02/22 08:34:25;;;;;;;17.75;8.48;;;23.00;41.90;;;;;;6267113;27;82745;-62
2023/02/22 08:37:26;;;;;;;16.10;8.02;;;23.00;41.80;;;;;;6270247;27;80731;-59
2023/02/22 08:40:26;;;;;;;14.50;7.10;;;23.00;41.80;;;;;;6269732;27;80857;-60
2023/02/22 08:43:27;;;;;;;17.65;7.68;;;23.00;41.80;;;;;;6269588;27;81000;-62
2023/02/22 08:46:28;;;;;;;16.65;7.85;;;23.00;41.80;;;;;;6265161;27;81872;-63
2023/02/22 08:49:28;;;;;;;20.98;8.43;;;23.00;41.60;;;;;;6272512;27;80510;-61
2023/02/22 08:52:28;;;;;;;16.23;7.60;;;23.00;41.50;;;;;;6261140;27;82606;-62
2023/02/22 08:55:30;;;;;;;15.18;7.28;;;23.00;41.50;;;;;;6271226;27;80446;-62
2023/02/22 08:58:31;;;;;;;15.80;7.13;;;23.00;41.60;;;;;;6268507;27;83082;-62
2023/02/22 09:01:33;;;;;;;14.75;6.97;;;23.00;41.30;;;;;;6260309;27;81753;-63
2023/02/22 09:04:34;;;;;;;16.17;7.53;;;23.10;41.00;;;;;;6260025;27;81030;-62
2023/02/22 09:07:34;;;;;;;17.85;7.00;;;23.10;40.80;;;;;;6272277;27;83201;-62
2023/02/22 09:10:35;;;;;;;16.13;6.13;;;23.10;40.60;;;;;;6250593;27;81740;-61
2023/02/22 09:13:35;;;;;;;15.30;6.65;;;23.10;40.40;;;;;;6252289;27;82255;-62
2023/02/22 09:16:36;;;;;;;12.35;6.60;;;23.20;40.40;;;;;;6238681;27;83718;-63
2023/02/22 09:19:37;;;;;;;14.27;6.57;;;23.20;40.10;;;;;;6267058;27;83037;-62
2023/02/22 09:22:37;;;;;;;16.83;7.10;;;23.20;40.00;;;;;;6263462;27;81245;-62
2023/02/22 09:25:39;;;;;;;17.20;6.82;;;23.20;39.90;;;;;;6258116;27;83243;-62
2023/02/22 09:28:41;;;;;;;14.52;6.25;;;23.20;39.80;;;;;;6270341;27;80840;-62
2023/02/22 09:31:41;;;;;;;16.83;6.40;;;23.30;39.90;;;;;;6270074;27;80425;-62
2023/02/22 09:34:44;;;;;;;13.95;6.75;;;23.30;39.80;;;;;;6267656;27;82193;-62
2023/02/22 09:37:45;;;;;;;15.15;6.60;;;23.30;39.60;;;;;;6212487;27;1183534;-62
2023/02/22 09:40:45;;;;;;;14.25;6.35;;;23.30;39.70;;;;;;6259941;27;82008;-55
2023/02/22 09:43:46;;;;;;;13.27;6.63;;;23.30;39.70;;;;;;6259996;27;82330;-54
2023/02/22 09:46:46;;;;;;;16.17;6.47;;;23.40;39.70;;;;;;6264102;27;83159;-56
2023/02/22 09:49:47;;;;;;;12.73;6.45;;;23.50;39.30;;;;;;6267347;27;82989;-53
2023/02/22 09:52:47;;;;;;;11.77;5.93;;;23.50;39.30;;;;;;6251653;27;81982;-52
2023/02/22 09:55:48;;;;;;;13.60;6.20;;;23.60;39.10;;;;;;6250218;27;82724;-53
2023/02/22 09:58:51;;;;;;;14.13;5.82;;;23.70;38.80;;;;;;6269534;27;86949;-53
2023/02/22 10:01:51;;;;;;;12.35;5.60;;;23.70;38.80;;;;;;6267338;27;81373;-55
2023/02/22 10:04:52;;;;;;;12.77;5.93;;;23.70;38.90;;;;;;6247887;27;83360;-54
2023/02/22 10:07:52;;;;;;;12.13;5.95;;;23.80;39.10;;;;;;6264583;27;80666;-54
2023/02/22 10:10:53;;;;;;;11.55;6.00;;;23.80;39.30;;;;;;6257902;27;80588;-55
2023/02/22 10:13:54;;;;;;;10.13;5.13;;;23.80;39.40;;;;;;6264024;27;80560;-55
2023/02/22 10:16:54;;;;;;;13.02;5.53;;;23.80;39.50;;;;;;6265025;27;81394;-64
2023/02/22 10:19:55;;;;;;;11.73;5.07;;;23.80;39.40;;;;;;6259546;27;80353;-63
2023/02/22 10:22:55;;;;;;;9.75;4.88;;;23.90;39.30;;;;;;6249686;27;81038;-62
2023/02/22 10:25:56;;;;;;;9.02;4.22;;;24.00;39.30;;;;;;6262297;27;81661;-65
2023/02/22 10:28:56;;;;;;;11.00;4.53;;;24.00;37.90;;;;;;6273427;27;80573;-65
2023/02/22 10:31:57;;;;;;;8.88;4.00;;;23.70;35.60;;;;;;6272145;27;80637;-65
2023/02/22 10:34:57;;;;;;;13.63;4.30;;;23.50;35.10;;;;;;6258124;27;80499;-65
2023/02/22 10:37:58;;;;;;;13.95;4.63;;;23.30;35.00;;;;;;6263928;27;82478;-63
2023/02/22 10:40:58;;;;;;;11.38;4.32;;;23.10;34.70;;;;;;6236344;27;83893;-64
2023/02/22 10:43:59;;;;;;;10.95;4.38;;;23.00;34.70;;;;;;6256408;27;80939;-64
2023/02/22 10:47:00;;;;;;;10.10;4.07;;;22.90;34.20;;;;;;6265583;27;80342;-64
2023/02/22 10:50:00;;;;;;;13.32;4.43;;;22.70;34.50;;;;;;6268515;27;82307;-66
2023/02/22 10:53:01;;;;;;;8.80;4.03;;;22.60;34.50;;;;;;6255338;27;80840;-52
2023/02/22 10:56:01;;;;;;;12.20;3.58;;;22.60;34.50;;;;;;6269293;27;81936;-54
2023/02/22 10:59:03;;;;;;;11.02;3.65;;;22.50;34.40;;;;;;6273074;27;82544;-54
2023/02/22 11:02:03;;;;;;;10.20;3.83;;;22.40;34.40;;;;;;6259843;27;85516;-54
2023/02/22 11:05:04;;;;;;;11.18;3.45;;;22.30;34.40;;;;;;6247899;27;80589;-55
2023/02/22 11:08:04;;;;;;;10.38;3.50;;;22.30;34.40;;;;;;6255739;27;84461;-51
2023/02/22 11:11:05;;;;;;;13.30;3.08;;;22.30;34.50;;;;;;6258927;27;80744;-63
2023/02/22 11:14:06;;;;;;;11.30;3.38;;;22.50;34.50;;;;;;6259992;27;85684;-64
2023/02/22 11:17:06;;;;;;;9.13;3.60;;;22.50;34.60;;;;;;6265357;27;81709;-63
2023/02/22 11:20:07;;;;;;;10.77;3.38;;;22.60;34.60;;;;;;6277263;27;82814;-64
2023/02/22 11:23:07;;;;;;;10.95;3.35;;;22.60;34.40;;;;;;6266346;27;80636;-65
2023/02/22 11:26:08;;;;;;;8.98;3.47;;;22.60;34.50;;;;;;6269109;27;82968;-64
2023/02/22 11:29:08;;;;;;;8.07;3.60;;;22.50;34.40;;;;;;6264862;27;82392;-55
2023/02/22 11:32:09;;;;;;;8.93;3.70;;;22.50;34.30;;;;;;6267531;27;82028;-54
2023/02/22 11:35:10;;;;;;;8.38;2.85;;;22.50;34.30;;;;;;6255748;27;84704;-53
2023/02/22 11:38:10;;;;;;;9.60;3.42;;;22.50;34.40;;;;;;6270889;27;83242;-53
2023/02/22 11:41:13;;;;;;;8.15;3.10;;;22.40;34.40;;;;;;6261787;27;81033;-57
2023/02/22 11:44:13;;;;;;;10.95;3.50;;;22.40;34.50;;;;;;6257429;27;84230;-52
2023/02/22 11:47:14;;;;;;;12.45;5.15;;;22.40;34.40;;;;;;6257483;27;81122;-54
2023/02/22 11:50:14;;;;;;;13.95;3.83;;;22.40;34.30;;;;;;6241150;27;82237;-53
2023/02/22 11:53:15;;;;;;;11.57;3.78;;;22.40;34.30;;;;;;6262720;27;80951;-54
2023/02/22 11:56:17;;;;;;;7.05;3.85;;;22.40;34.70;;;;;;6237868;27;83045;-55
2023/02/22 11:59:18;;;;;;;9.52;3.38;;;22.60;35.40;;;;;;6256148;27;81027;-53
2023/02/22 12:02:18;;;;;;;9.77;3.47;;;22.80;35.30;;;;;;6272553;27;84080;-53
2023/02/22 12:05:19;;;;;;;7.90;3.40;;;22.90;35.20;;;;;;6256932;27;80899;-61
2023/02/22 12:08:20;;;;;;;10.10;3.20;;;22.90;35.30;;;;;;6270753;27;80836;-63
2023/02/22 12:11:21;;;;;;;8.57;3.75;;;23.00;35.30;;;;;;6269060;27;80545;-61
2023/02/22 12:14:21;;;;;;;11.10;3.53;;;23.10;35.40;;;;;;6264571;27;80735;-62
2023/02/22 12:17:22;;;;;;;9.77;3.65;;;23.20;35.30;;;;;;6268904;27;80153;-62
2023/02/22 12:20:23;;;;;;;7.53;3.45;;;23.20;35.40;;;;;;6274203;27;81772;-62
2023/02/22 12:23:24;;;;;;;12.52;2.97;;;23.20;35.50;;;;;;6243535;27;81260;-62
2023/02/22 12:26:24;;;;;;;8.40;3.95;;;23.20;35.50;;;;;;6257844;27;80665;-62
2023/02/22 12:29:25;;;;;;;13.02;3.63;;;23.30;35.50;;;;;;6262750;27;80821;-62
2023/02/22 12:32:25;;;;;;;9.80;3.63;;;23.40;35.60;;;;;;6264326;27;80375;-63
2023/02/22 12:35:26;;;;;;;11.52;3.88;;;23.60;35.60;;;;;;6264278;27;83910;-62
2023/02/22 12:38:28;;;;;;;9.15;4.10;;;23.70;35.60;;;;;;6247330;27;84988;-62
2023/02/22 12:41:29;;;;;;;7.28;3.30;;;23.70;35.60;;;;;;6242691;27;81213;-54
2023/02/22 12:44:29;;;;;;;12.15;3.65;;;23.80;35.70;;;;;;6250605;27;85680;-56
2023/02/22 12:47:30;;;;;;;7.35;3.83;;;23.80;35.90;;;;;;6255759;27;82356;-55
2023/02/22 12:50:33;;;;;;;9.77;3.67;;;23.90;35.80;;;;;;6247292;27;80578;-53
2023/02/22 12:53:33;;;;;;;10.98;4.55;;;23.90;35.80;;;;;;6244583;27;80499;-55
2023/02/22 12:56:34;;;;;;;10.20;3.38;;;24.00;36.10;;;;;;6231640;27;80824;-54
2023/02/22 12:59:35;;;;;;;8.27;3.55;;;24.00;36.00;;;;;;6243588;27;82002;-51
2023/02/22 13:02:35;;;;;;;8.30;3.40;;;24.00;36.30;;;;;;6247843;27;80892;-56
2023/02/22 13:05:36;;;;;;;9.40;3.70;;;24.00;36.30;;;;;;6249324;27;81500;-54
2023/02/22 13:08:36;;;;;;;8.00;3.67;;;24.10;36.60;;;;;;6246740;27;84001;-54
2023/02/22 13:11:37;;;;;;;9.73;3.85;;;24.10;36.50;;;;;;6241419;27;82077;-53
2023/02/22 13:14:37;;;;;;;8.18;3.40;;;24.10;36.50;;;;;;6245605;27;83847;-55
2023/02/22 13:17:38;;;;;;;9.15;3.63;;;24.00;36.50;;;;;;6228054;27;87493;-56
2023/02/22 13:20:40;;;;;;;14.32;3.97;;;24.00;36.70;;;;;;6250090;27;80620;-56
2023/02/22 13:23:40;;;;;;;7.18;3.20;;;24.00;36.50;;;;;;6246074;27;86335;-55
2023/02/22 13:26:41;;;;;;;8.20;3.53;;;24.00;36.60;;;;;;6242397;27;80552;-55
2023/02/22 13:29:41;;;;;;;8.82;3.63;;;24.00;36.70;;;;;;6239909;27;85368;-55
2023/02/22 13:32:42;;;;;;;9.10;3.92;;;24.00;36.50;;;;;;6243446;27;82183;-53
2023/02/22 13:35:43;;;;;;;8.23;3.50;;;24.00;36.70;;;;;;6244694;27;80885;-57
2023/02/22 13:38:43;;;;;;;12.48;4.65;;;23.90;36.60;;;;;;6212020;27;85536;-55
2023/02/22 13:41:44;;;;;;;9.70;4.25;;;23.90;36.70;;;;;;6239283;27;81299;-53
2023/02/22 13:44:44;;;;;;;9.60;3.88;;;23.90;36.80;;;;;;6237927;27;81277;-54
2023/02/22 13:47:45;;;;;;;9.90;4.10;;;23.90;36.90;;;;;;6241606;27;83722;-55
2023/02/22 13:50:45;;;;;;;15.95;5.03;;;23.90;36.80;;;;;;6218252;27;81771;-55
2023/02/22 13:53:46;;;;;;;8.77;4.63;;;23.90;36.90;;;;;;6242805;27;81780;-55
2023/02/22 13:56:46;;;;;;;11.77;4.32;;;23.90;37.10;;;;;;6238944;27;80633;-54
2023/02/22 13:59:47;;;;;;;11.88;4.57;;;23.80;36.70;;;;;;6246910;27;80368;-57
2023/02/22 14:02:47;;;;;;;11.68;4.30;;;23.80;36.70;;;;;;6239616;27;85852;-53
2023/02/22 14:05:51;;;;;;;11.73;4.82;;;23.80;36.70;;;;;;6237248;27;80532;-54
2023/02/22 14:08:51;;;;;;;11.13;4.80;;;23.80;36.70;;;;;;6245024;27;80511;-54
2023/02/22 14:11:55;;;;;;;12.23;4.32;;;23.70;36.70;;;;;;6226760;27;83486;-53
2023/02/22 14:14:56;;;;;;;9.30;4.45;;;23.70;36.80;;;;;;6242891;27;80882;-55
2023/02/22 14:17:56;;;;;;;9.07;3.97;;;23.70;36.90;;;;;;6251122;28;80667;-53
2023/02/22 14:20:57;;;;;;;11.90;4.47;;;23.70;37.00;;;;;;6249680;28;80449;-54
2023/02/22 14:23:57;;;;;;;12.55;4.65;;;23.70;36.90;;;;;;6242636;28;80800;-54
2023/02/22 14:26:58;;;;;;;8.25;4.25;;;23.60;36.90;;;;;;6236096;27;80646;-50
2023/02/22 14:29:59;;;;;;;7.47;4.03;;;23.60;36.70;;;;;;6239013;27;80901;-54
2023/02/22 14:32:59;;;;;;;10.45;4.65;;;23.60;36.70;;;;;;6249928;27;80391;-53
2023/02/22 14:36:00;;;;;;;10.18;3.97;;;23.50;36.60;;;;;;6250542;28;80445;-55
2023/02/22 14:39:00;;;;;;;11.20;3.80;;;23.50;36.50;;;;;;6258844;27;81167;-53
2023/02/22 14:42:01;;;;;;;10.52;4.57;;;23.50;36.50;;;;;;6268664;27;82226;-55
2023/02/22 14:45:01;;;;;;;10.75;3.60;;;23.50;36.20;;;;;;6264484;27;81004;-53
2023/02/22 14:48:02;;;;;;;8.73;3.80;;;23.40;36.20;;;;;;6258264;27;80387;-50
2023/02/22 14:51:04;;;;;;;10.43;3.58;;;23.40;36.20;;;;;;6269932;27;80963;-61
2023/02/22 14:54:05;;;;;;;13.23;4.30;;;23.40;36.30;;;;;;6255189;27;82137;-61
2023/02/22 14:57:13;;;;;;;10.65;4.13;;;23.30;36.10;;;;;;6266001;27;81473;-62
2023/02/22 15:00:18;;;;;;;10.35;4.22;;;23.30;36.50;;;;;;6269422;27;80436;-61
2023/02/22 15:03:19;;;;;;;8.50;3.67;;;23.30;36.50;;;;;;6269784;27;84651;-62
2023/02/22 15:06:19;;;;;;;11.02;3.92;;;23.30;36.50;;;;;;6268110;27;80592;-61
2023/02/22 15:09:23;;;;;;;12.00;3.97;;;23.30;36.40;;;;;;6274467;27;80547;-62
2023/02/22 15:12:23;;;;;;;9.18;3.95;;;23.30;36.50;;;;;;6256432;27;81163;-62
2023/02/22 15:15:24;;;;;;;9.70;3.47;;;23.30;36.60;;;;;;6246881;27;84847;-61
2023/02/22 15:18:25;;;;;;;9.32;3.72;;;23.30;36.70;;;;;;6260781;27;81153;-60
2023/02/22 15:21:26;;;;;;;10.07;3.60;;;23.30;36.60;;;;;;6257354;27;81768;-61
2023/02/22 15:24:26;;;;;;;6.75;4.15;;;23.30;36.60;;;;;;6264415;27;81861;-61
2023/02/22 15:27:27;;;;;;;10.45;4.00;;;23.30;36.80;;;;;;6269258;27;84774;-61
2023/02/22 15:30:28;;;;;;;8.50;3.83;;;23.30;36.60;;;;;;6261732;27;84379;-62
2023/02/22 15:33:30;;;;;;;8.13;3.42;;;23.30;36.80;;;;;;6267425;27;80964;-60
2023/02/22 15:36:30;;;;;;;10.00;3.28;;;23.30;36.70;;;;;;6255778;27;80378;-60
2023/02/22 15:39:33;;;;;;;8.75;3.90;;;23.20;37.00;;;;;;6258131;27;81030;-61
2023/02/22 15:42:33;;;;;;;7.47;3.50;;;23.30;36.90;;;;;;6268267;27;81017;-61
2023/02/22 15:45:41;;;;;;;10.10;4.05;;;23.30;37.10;;;;;;6264071;27;80635;-62
2023/02/22 15:48:42;;;;;;;8.13;3.88;;;23.30;37.40;;;;;;6270440;27;80163;-62